sensor_id;sensor_type;location;lat;lon;timestamp;P1;durP1;ratioP1;P2;durP2;ratioP2
37873;SDS011;23709;48.078;11.684;2022-11-15T00:02:44;12.90;;;8.43;;
37873;SDS011;23709;48.078;11.684;2022-11-15T00:05:34;11.90;;;7.70;;
37873;SDS011;23709;48.078;11.684;2022-11-15T00:08:28;12.90;;;8.57;;
37873;SDS011;23709;48.078;11.684;2022-11-15T00:11:20;13.35;;;8.57;;
37873;SDS011;23709;48.078;11.684;2022-11-15T00:14:11;12.00;;;7.75;;
37873;SDS011;23709;48.078;11.684;2022-11-15T00:17:01;14.13;;;8.35;;
37873;SDS011;23709;48.078;11.684;2022-11-15T00:19:52;11.23;;;8.05;;
37873;SDS011;23709;48.078;11.684;2022-11-15T00:22:42;14.82;;;8.40;;
37873;SDS011;23709;48.078;11.684;2022-11-15T00:25:33;11.75;;;8.00;;
37873;SDS011;23709;48.078;11.684;2022-11-15T00:28:24;14.10;;;8.35;;
37873;SDS011;23709;48.078;11.684;2022-11-15T00:31:15;12.43;;;7.40;;
37873;SDS011;23709;48.078;11.684;2022-11-15T00:34:06;12.38;;;7.70;;
37873;SDS011;23709;48.078;11.684;2022-11-15T00:36:56;11.32;;;7.80;;
37873;SDS011;23709;48.078;11.684;2022-11-15T00:39:47;10.52;;;7.22;;
37873;SDS011;23709;48.078;11.684;2022-11-15T00:42:37;12.77;;;8.02;;
37873;SDS011;23709;48.078;11.684;2022-11-15T00:45:28;15.80;;;7.07;;
37873;SDS011;23709;48.078;11.684;2022-11-15T00:48:18;11.95;;;7.78;;
37873;SDS011;23709;48.078;11.684;2022-11-15T00:51:09;13.82;;;7.25;;
37873;SDS011;23709;48.078;11.684;2022-11-15T00:54:00;13.13;;;7.78;;
37873;SDS011;23709;48.078;11.684;2022-11-15T00:56:50;13.60;;;8.05;;
37873;SDS011;23709;48.078;11.684;2022-11-15T00:59:41;12.23;;;7.90;;
37873;SDS011;23709;48.078;11.684;2022-11-15T01:02:31;11.18;;;7.13;;
37873;SDS011;23709;48.078;11.684;2022-11-15T01:05:22;14.90;;;8.07;;
37873;SDS011;23709;48.078;11.684;2022-11-15T01:08:14;13.63;;;7.93;;
37873;SDS011;23709;48.078;11.684;2022-11-15T01:11:09;13.98;;;8.70;;
37873;SDS011;23709;48.078;11.684;2022-11-15T01:14:01;14.25;;;8.55;;
37873;SDS011;23709;48.078;11.684;2022-11-15T01:16:52;13.27;;;8.18;;
37873;SDS011;23709;48.078;11.684;2022-11-15T01:19:48;14.00;;;8.05;;
37873;SDS011;23709;48.078;11.684;2022-11-15T01:22:39;14.00;;;8.30;;
37873;SDS011;23709;48.078;11.684;2022-11-15T01:25:29;12.57;;;8.63;;
37873;SDS011;23709;48.078;11.684;2022-11-15T01:28:19;12.90;;;7.72;;
37873;SDS011;23709;48.078;11.684;2022-11-15T01:31:14;10.95;;;7.45;;
37873;SDS011;23709;48.078;11.684;2022-11-15T01:34:06;12.93;;;7.82;;
37873;SDS011;23709;48.078;11.684;2022-11-15T01:36:57;13.55;;;7.80;;
37873;SDS011;23709;48.078;11.684;2022-11-15T01:39:47;12.82;;;7.55;;
37873;SDS011;23709;48.078;11.684;2022-11-15T01:42:37;10.82;;;6.68;;
37873;SDS011;23709;48.078;11.684;2022-11-15T01:45:28;13.57;;;6.82;;
37873;SDS011;23709;48.078;11.684;2022-11-15T01:48:18;10.80;;;7.07;;
37873;SDS011;23709;48.078;11.684;2022-11-15T01:51:10;11.93;;;6.60;;
37873;SDS011;23709;48.078;11.684;2022-11-15T01:54:08;11.98;;;7.32;;
37873;SDS011;23709;48.078;11.684;2022-11-15T01:57:05;10.45;;;7.35;;
37873;SDS011;23709;48.078;11.684;2022-11-15T02:00:00;10.27;;;6.97;;
37873;SDS011;23709;48.078;11.684;2022-11-15T02:02:51;11.95;;;7.60;;
37873;SDS011;23709;48.078;11.684;2022-11-15T02:05:42;9.93;;;6.65;;
37873;SDS011;23709;48.078;11.684;2022-11-15T02:08:34;10.88;;;5.72;;
37873;SDS011;23709;48.078;11.684;2022-11-15T02:11:25;8.93;;;6.03;;
37873;SDS011;23709;48.078;11.684;2022-11-15T02:14:16;12.13;;;7.10;;
37873;SDS011;23709;48.078;11.684;2022-11-15T02:23:44;9.15;;;5.80;;
37873;SDS011;23709;48.078;11.684;2022-11-15T02:33:15;10.00;;;5.68;;
37873;SDS011;23709;48.078;11.684;2022-11-15T02:40:00;9.20;;;5.53;;
37873;SDS011;23709;48.078;11.684;2022-11-15T02:43:00;8.30;;;4.65;;
37873;SDS011;23709;48.078;11.684;2022-11-15T02:46:22;8.32;;;5.10;;
37873;SDS011;23709;48.078;11.684;2022-11-15T02:52:40;7.90;;;5.03;;
37873;SDS011;23709;48.078;11.684;2022-11-15T02:55:34;8.82;;;5.38;;
37873;SDS011;23709;48.078;11.684;2022-11-15T02:58:45;8.63;;;5.35;;
37873;SDS011;23709;48.078;11.684;2022-11-15T03:11:22;11.45;;;6.22;;
37873;SDS011;23709;48.078;11.684;2022-11-15T03:14:21;12.13;;;6.18;;
37873;SDS011;23709;48.078;11.684;2022-11-15T03:17:42;12.73;;;6.28;;
37873;SDS011;23709;48.078;11.684;2022-11-15T03:20:42;11.50;;;5.85;;
37873;SDS011;23709;48.078;11.684;2022-11-15T03:23:33;11.60;;;6.05;;
37873;SDS011;23709;48.078;11.684;2022-11-15T03:26:26;9.13;;;6.03;;
37873;SDS011;23709;48.078;11.684;2022-11-15T03:29:20;9.98;;;6.47;;
37873;SDS011;23709;48.078;11.684;2022-11-15T03:32:19;8.30;;;5.45;;
37873;SDS011;23709;48.078;11.684;2022-11-15T03:35:14;10.35;;;6.65;;
37873;SDS011;23709;48.078;11.684;2022-11-15T03:38:24;8.23;;;5.38;;
37873;SDS011;23709;48.078;11.684;2022-11-15T03:41:20;8.75;;;6.03;;
37873;SDS011;23709;48.078;11.684;2022-11-15T03:44:26;7.20;;;5.13;;
37873;SDS011;23709;48.078;11.684;2022-11-15T03:47:51;10.55;;;5.82;;
37873;SDS011;23709;48.078;11.684;2022-11-15T03:50:43;6.50;;;4.40;;
37873;SDS011;23709;48.078;11.684;2022-11-15T03:53:36;9.13;;;5.15;;
37873;SDS011;23709;48.078;11.684;2022-11-15T03:56:26;6.15;;;4.25;;
37873;SDS011;23709;48.078;11.684;2022-11-15T03:59:17;6.88;;;4.57;;
37873;SDS011;23709;48.078;11.684;2022-11-15T04:02:08;7.00;;;4.55;;
37873;SDS011;23709;48.078;11.684;2022-11-15T04:04:58;8.38;;;4.78;;
37873;SDS011;23709;48.078;11.684;2022-11-15T04:07:49;6.82;;;4.43;;
37873;SDS011;23709;48.078;11.684;2022-11-15T04:10:40;11.95;;;5.05;;
37873;SDS011;23709;48.078;11.684;2022-11-15T04:13:31;6.78;;;4.13;;
37873;SDS011;23709;48.078;11.684;2022-11-15T04:16:22;6.45;;;4.82;;
37873;SDS011;23709;48.078;11.684;2022-11-15T04:19:13;6.45;;;4.32;;
37873;SDS011;23709;48.078;11.684;2022-11-15T04:22:23;6.75;;;4.53;;
37873;SDS011;23709;48.078;11.684;2022-11-15T04:25:32;7.72;;;5.03;;
37873;SDS011;23709;48.078;11.684;2022-11-15T04:28:23;7.35;;;4.43;;
37873;SDS011;23709;48.078;11.684;2022-11-15T04:31:13;8.02;;;4.20;;
37873;SDS011;23709;48.078;11.684;2022-11-15T04:34:04;7.75;;;4.68;;
37873;SDS011;23709;48.078;11.684;2022-11-15T04:36:54;7.22;;;4.63;;
37873;SDS011;23709;48.078;11.684;2022-11-15T04:40:03;6.57;;;4.55;;
37873;SDS011;23709;48.078;11.684;2022-11-15T04:42:54;6.47;;;3.85;;
37873;SDS011;23709;48.078;11.684;2022-11-15T04:45:52;6.97;;;4.30;;
37873;SDS011;23709;48.078;11.684;2022-11-15T04:48:44;6.30;;;4.28;;
37873;SDS011;23709;48.078;11.684;2022-11-15T04:51:36;6.50;;;4.13;;
37873;SDS011;23709;48.078;11.684;2022-11-15T04:54:26;7.70;;;3.80;;
37873;SDS011;23709;48.078;11.684;2022-11-15T04:57:17;7.32;;;4.90;;
37873;SDS011;23709;48.078;11.684;2022-11-15T05:00:10;6.93;;;4.00;;
37873;SDS011;23709;48.078;11.684;2022-11-15T05:06:11;7.88;;;4.25;;
37873;SDS011;23709;48.078;11.684;2022-11-15T05:09:03;5.43;;;3.97;;
37873;SDS011;23709;48.078;11.684;2022-11-15T05:11:53;7.43;;;4.50;;
37873;SDS011;23709;48.078;11.684;2022-11-15T05:14:44;8.35;;;4.85;;
37873;SDS011;23709;48.078;11.684;2022-11-15T05:17:34;12.48;;;6.55;;
37873;SDS011;23709;48.078;11.684;2022-11-15T05:20:25;13.23;;;6.13;;
37873;SDS011;23709;48.078;11.684;2022-11-15T05:23:15;9.40;;;5.35;;
37873;SDS011;23709;48.078;11.684;2022-11-15T05:26:07;13.10;;;6.90;;
37873;SDS011;23709;48.078;11.684;2022-11-15T05:28:59;16.70;;;8.80;;
37873;SDS011;23709;48.078;11.684;2022-11-15T05:31:49;19.52;;;8.52;;
37873;SDS011;23709;48.078;11.684;2022-11-15T05:34:40;13.82;;;9.07;;
37873;SDS011;23709;48.078;11.684;2022-11-15T05:37:30;12.85;;;8.85;;
37873;SDS011;23709;48.078;11.684;2022-11-15T05:40:21;12.82;;;7.60;;
37873;SDS011;23709;48.078;11.684;2022-11-15T05:43:12;15.13;;;5.20;;
37873;SDS011;23709;48.078;11.684;2022-11-15T05:46:02;7.47;;;4.80;;
37873;SDS011;23709;48.078;11.684;2022-11-15T05:48:54;7.97;;;5.45;;
37873;SDS011;23709;48.078;11.684;2022-11-15T05:51:46;8.75;;;5.32;;
37873;SDS011;23709;48.078;11.684;2022-11-15T05:54:38;13.25;;;4.90;;
37873;SDS011;23709;48.078;11.684;2022-11-15T05:57:29;10.13;;;6.28;;
37873;SDS011;23709;48.078;11.684;2022-11-15T06:00:20;8.82;;;5.40;;
37873;SDS011;23709;48.078;11.684;2022-11-15T06:03:11;9.55;;;5.60;;
37873;SDS011;23709;48.078;11.684;2022-11-15T06:06:01;8.35;;;5.20;;
37873;SDS011;23709;48.078;11.684;2022-11-15T06:08:51;10.32;;;5.88;;
37873;SDS011;23709;48.078;11.684;2022-11-15T06:11:42;8.40;;;5.30;;
37873;SDS011;23709;48.078;11.684;2022-11-15T06:14:32;10.48;;;4.97;;
37873;SDS011;23709;48.078;11.684;2022-11-15T06:17:23;9.55;;;5.88;;
37873;SDS011;23709;48.078;11.684;2022-11-15T06:20:13;13.50;;;6.28;;
37873;SDS011;23709;48.078;11.684;2022-11-15T06:23:04;10.15;;;6.07;;
37873;SDS011;23709;48.078;11.684;2022-11-15T06:25:57;7.95;;;4.80;;
37873;SDS011;23709;48.078;11.684;2022-11-15T06:28:48;10.55;;;5.15;;
37873;SDS011;23709;48.078;11.684;2022-11-15T06:31:39;9.00;;;5.45;;
37873;SDS011;23709;48.078;11.684;2022-11-15T06:34:31;10.30;;;5.30;;
37873;SDS011;23709;48.078;11.684;2022-11-15T06:37:21;11.70;;;5.85;;
37873;SDS011;23709;48.078;11.684;2022-11-15T06:40:12;8.57;;;5.60;;
37873;SDS011;23709;48.078;11.684;2022-11-15T06:43:03;9.90;;;6.32;;
37873;SDS011;23709;48.078;11.684;2022-11-15T06:45:55;8.20;;;5.20;;
37873;SDS011;23709;48.078;11.684;2022-11-15T06:48:45;8.23;;;5.25;;
37873;SDS011;23709;48.078;11.684;2022-11-15T06:51:36;9.10;;;5.10;;
37873;SDS011;23709;48.078;11.684;2022-11-15T06:54:27;9.00;;;5.28;;
37873;SDS011;23709;48.078;11.684;2022-11-15T06:57:18;11.25;;;6.22;;
37873;SDS011;23709;48.078;11.684;2022-11-15T07:00:08;8.95;;;5.18;;
37873;SDS011;23709;48.078;11.684;2022-11-15T07:03:00;10.05;;;5.53;;
37873;SDS011;23709;48.078;11.684;2022-11-15T07:05:51;8.13;;;4.88;;
37873;SDS011;23709;48.078;11.684;2022-11-15T07:08:43;9.02;;;5.57;;
37873;SDS011;23709;48.078;11.684;2022-11-15T07:11:35;12.15;;;6.60;;
37873;SDS011;23709;48.078;11.684;2022-11-15T07:14:26;9.73;;;4.90;;
37873;SDS011;23709;48.078;11.684;2022-11-15T07:17:16;9.27;;;5.50;;
37873;SDS011;23709;48.078;11.684;2022-11-15T07:20:07;9.35;;;4.97;;
37873;SDS011;23709;48.078;11.684;2022-11-15T07:23:01;11.43;;;5.97;;
37873;SDS011;23709;48.078;11.684;2022-11-15T07:25:53;8.25;;;5.18;;
37873;SDS011;23709;48.078;11.684;2022-11-15T07:28:43;11.52;;;6.53;;
37873;SDS011;23709;48.078;11.684;2022-11-15T07:31:34;8.30;;;6.03;;
37873;SDS011;23709;48.078;11.684;2022-11-15T07:34:24;8.73;;;5.70;;
37873;SDS011;23709;48.078;11.684;2022-11-15T07:37:15;9.73;;;5.38;;
37873;SDS011;23709;48.078;11.684;2022-11-15T07:40:07;12.48;;;7.05;;
37873;SDS011;23709;48.078;11.684;2022-11-15T07:42:59;8.65;;;5.53;;
37873;SDS011;23709;48.078;11.684;2022-11-15T07:45:53;13.05;;;6.63;;
37873;SDS011;23709;48.078;11.684;2022-11-15T07:48:48;13.13;;;6.20;;
37873;SDS011;23709;48.078;11.684;2022-11-15T07:51:39;11.10;;;6.90;;
37873;SDS011;23709;48.078;11.684;2022-11-15T07:54:29;10.82;;;7.03;;
37873;SDS011;23709;48.078;11.684;2022-11-15T07:57:20;10.70;;;6.47;;
37873;SDS011;23709;48.078;11.684;2022-11-15T08:00:11;11.77;;;6.80;;
37873;SDS011;23709;48.078;11.684;2022-11-15T08:03:06;10.23;;;6.25;;
37873;SDS011;23709;48.078;11.684;2022-11-15T08:05:59;12.48;;;6.53;;
37873;SDS011;23709;48.078;11.684;2022-11-15T08:08:50;11.43;;;7.03;;
37873;SDS011;23709;48.078;11.684;2022-11-15T08:11:40;11.02;;;6.28;;
37873;SDS011;23709;48.078;11.684;2022-11-15T08:14:31;10.10;;;6.07;;
37873;SDS011;23709;48.078;11.684;2022-11-15T08:17:22;12.52;;;6.20;;
37873;SDS011;23709;48.078;11.684;2022-11-15T08:20:14;10.35;;;6.03;;
37873;SDS011;23709;48.078;11.684;2022-11-15T08:23:05;9.23;;;5.75;;
37873;SDS011;23709;48.078;11.684;2022-11-15T08:26:03;13.85;;;5.47;;
37873;SDS011;23709;48.078;11.684;2022-11-15T08:28:55;14.07;;;6.45;;
37873;SDS011;23709;48.078;11.684;2022-11-15T08:31:45;7.88;;;4.95;;
37873;SDS011;23709;48.078;11.684;2022-11-15T08:34:36;9.07;;;5.32;;
37873;SDS011;23709;48.078;11.684;2022-11-15T08:37:27;10.25;;;4.90;;
37873;SDS011;23709;48.078;11.684;2022-11-15T08:40:18;8.13;;;4.90;;
37873;SDS011;23709;48.078;11.684;2022-11-15T08:43:10;7.78;;;5.47;;
37873;SDS011;23709;48.078;11.684;2022-11-15T08:46:00;9.20;;;5.72;;
37873;SDS011;23709;48.078;11.684;2022-11-15T08:48:50;10.48;;;5.13;;
37873;SDS011;23709;48.078;11.684;2022-11-15T08:51:41;12.13;;;5.47;;
37873;SDS011;23709;48.078;11.684;2022-11-15T08:54:32;10.13;;;5.90;;
37873;SDS011;23709;48.078;11.684;2022-11-15T08:57:22;9.45;;;5.63;;
37873;SDS011;23709;48.078;11.684;2022-11-15T09:00:13;12.80;;;5.75;;
37873;SDS011;23709;48.078;11.684;2022-11-15T09:03:05;15.80;;;5.95;;
37873;SDS011;23709;48.078;11.684;2022-11-15T09:05:58;9.68;;;5.30;;
37873;SDS011;23709;48.078;11.684;2022-11-15T09:08:50;8.95;;;5.18;;
37873;SDS011;23709;48.078;11.684;2022-11-15T09:11:41;10.98;;;5.65;;
37873;SDS011;23709;48.078;11.684;2022-11-15T09:14:31;8.38;;;4.97;;
37873;SDS011;23709;48.078;11.684;2022-11-15T09:17:22;8.35;;;4.90;;
37873;SDS011;23709;48.078;11.684;2022-11-15T09:20:14;8.45;;;5.05;;
37873;SDS011;23709;48.078;11.684;2022-11-15T09:23:05;6.80;;;4.72;;
37873;SDS011;23709;48.078;11.684;2022-11-15T09:25:59;5.47;;;3.75;;
37873;SDS011;23709;48.078;11.684;2022-11-15T09:28:51;9.45;;;4.57;;
37873;SDS011;23709;48.078;11.684;2022-11-15T09:31:41;6.13;;;3.65;;
37873;SDS011;23709;48.078;11.684;2022-11-15T09:34:32;5.28;;;3.75;;
37873;SDS011;23709;48.078;11.684;2022-11-15T09:37:23;6.93;;;3.90;;
37873;SDS011;23709;48.078;11.684;2022-11-15T09:40:13;6.65;;;3.78;;
37873;SDS011;23709;48.078;11.684;2022-11-15T09:49:16;5.53;;;4.10;;
37873;SDS011;23709;48.078;11.684;2022-11-15T09:51:53;6.25;;;3.95;;
37873;SDS011;23709;48.078;11.684;2022-11-15T10:00:32;5.32;;;3.63;;
37873;SDS011;23709;48.078;11.684;2022-11-15T10:03:30;4.43;;;3.00;;
37873;SDS011;23709;48.078;11.684;2022-11-15T10:06:10;5.88;;;3.50;;
37873;SDS011;23709;48.078;11.684;2022-11-15T10:11:30;5.78;;;3.20;;
37873;SDS011;23709;48.078;11.684;2022-11-15T10:14:20;5.95;;;3.50;;
37873;SDS011;23709;48.078;11.684;2022-11-15T10:22:40;5.65;;;3.63;;
37873;SDS011;23709;48.078;11.684;2022-11-15T10:30:46;3.85;;;2.95;;
37873;SDS011;23709;48.078;11.684;2022-11-15T10:33:37;4.53;;;3.37;;
37873;SDS011;23709;48.078;11.684;2022-11-15T10:41:22;5.00;;;2.83;;
37873;SDS011;23709;48.078;11.684;2022-11-15T10:46:39;6.30;;;2.80;;
37873;SDS011;23709;48.078;11.684;2022-11-15T10:52:00;4.50;;;3.38;;
37873;SDS011;23709;48.078;11.684;2022-11-15T10:54:38;5.28;;;2.95;;
37873;SDS011;23709;48.078;11.684;2022-11-15T10:57:32;6.63;;;2.85;;
37873;SDS011;23709;48.078;11.684;2022-11-15T11:05:28;5.63;;;2.72;;
37873;SDS011;23709;48.078;11.684;2022-11-15T11:10:54;4.10;;;3.10;;
37873;SDS011;23709;48.078;11.684;2022-11-15T11:13:36;5.35;;;2.95;;
37873;SDS011;23709;48.078;11.684;2022-11-15T11:22:15;7.35;;;3.45;;
37873;SDS011;23709;48.078;11.684;2022-11-15T11:31:05;4.13;;;3.03;;
37873;SDS011;23709;48.078;11.684;2022-11-15T11:45:20;4.20;;;3.40;;
37873;SDS011;23709;48.078;11.684;2022-11-15T11:47:57;5.93;;;3.80;;
37873;SDS011;23709;48.078;11.684;2022-11-15T11:50:38;8.43;;;4.10;;
37873;SDS011;23709;48.078;11.684;2022-11-15T11:56:04;4.22;;;3.83;;
37873;SDS011;23709;48.078;11.684;2022-11-15T11:59:17;3.53;;;2.47;;
37873;SDS011;23709;48.078;11.684;2022-11-15T12:02:11;3.45;;;3.15;;
37873;SDS011;23709;48.078;11.684;2022-11-15T12:04:51;2.63;;;2.30;;
37873;SDS011;23709;48.078;11.684;2022-11-15T12:07:29;5.70;;;2.58;;
37873;SDS011;23709;48.078;11.684;2022-11-15T12:12:51;4.90;;;2.97;;
37873;SDS011;23709;48.078;11.684;2022-11-15T12:15:26;6.93;;;3.03;;
37873;SDS011;23709;48.078;11.684;2022-11-15T12:18:03;3.60;;;2.83;;
37873;SDS011;23709;48.078;11.684;2022-11-15T12:20:37;3.28;;;2.58;;
37873;SDS011;23709;48.078;11.684;2022-11-15T12:23:28;3.67;;;3.00;;
37873;SDS011;23709;48.078;11.684;2022-11-15T12:26:05;7.13;;;2.97;;
37873;SDS011;23709;48.078;11.684;2022-11-15T12:31:41;3.15;;;2.85;;
37873;SDS011;23709;48.078;11.684;2022-11-15T12:36:52;5.25;;;3.30;;
37873;SDS011;23709;48.078;11.684;2022-11-15T12:42:40;4.75;;;2.67;;
37873;SDS011;23709;48.078;11.684;2022-11-15T12:45:24;4.15;;;2.45;;
37873;SDS011;23709;48.078;11.684;2022-11-15T12:53:30;4.15;;;2.70;;
37873;SDS011;23709;48.078;11.684;2022-11-15T12:58:56;6.57;;;4.00;;
37873;SDS011;23709;48.078;11.684;2022-11-15T13:07:00;3.50;;;2.90;;
37873;SDS011;23709;48.078;11.684;2022-11-15T13:12:07;6.93;;;2.20;;
37873;SDS011;23709;48.078;11.684;2022-11-15T13:19:58;3.63;;;2.70;;
37873;SDS011;23709;48.078;11.684;2022-11-15T13:30:52;4.30;;;2.78;;
37873;SDS011;23709;48.078;11.684;2022-11-15T13:33:36;3.42;;;2.67;;
37873;SDS011;23709;48.078;11.684;2022-11-15T13:36:15;3.40;;;2.85;;
37873;SDS011;23709;48.078;11.684;2022-11-15T13:41:54;4.55;;;3.15;;
37873;SDS011;23709;48.078;11.684;2022-11-15T13:44:29;5.85;;;3.25;;
37873;SDS011;23709;48.078;11.684;2022-11-15T13:47:04;4.68;;;2.80;;
37873;SDS011;23709;48.078;11.684;2022-11-15T13:49:36;6.25;;;4.10;;
37873;SDS011;23709;48.078;11.684;2022-11-15T13:52:11;7.63;;;3.00;;
37873;SDS011;23709;48.078;11.684;2022-11-15T13:54:58;4.70;;;3.00;;
37873;SDS011;23709;48.078;11.684;2022-11-15T13:57:56;3.72;;;2.83;;
37873;SDS011;23709;48.078;11.684;2022-11-15T14:00:32;7.07;;;3.08;;
37873;SDS011;23709;48.078;11.684;2022-11-15T14:03:16;4.63;;;3.20;;
37873;SDS011;23709;48.078;11.684;2022-11-15T14:06:04;4.28;;;3.63;;
37873;SDS011;23709;48.078;11.684;2022-11-15T14:11:35;5.70;;;3.17;;
37873;SDS011;23709;48.078;11.684;2022-11-15T14:16:40;4.05;;;2.97;;
37873;SDS011;23709;48.078;11.684;2022-11-15T14:30:48;8.15;;;4.50;;
37873;SDS011;23709;48.078;11.684;2022-11-15T14:36:10;5.13;;;3.80;;
37873;SDS011;23709;48.078;11.684;2022-11-15T14:38:50;8.43;;;4.03;;
37873;SDS011;23709;48.078;11.684;2022-11-15T14:41:23;5.88;;;4.00;;
37873;SDS011;23709;48.078;11.684;2022-11-15T14:43:57;6.10;;;3.72;;
37873;SDS011;23709;48.078;11.684;2022-11-15T14:46:30;6.15;;;3.58;;
37873;SDS011;23709;48.078;11.684;2022-11-15T14:49:02;8.10;;;4.20;;
37873;SDS011;23709;48.078;11.684;2022-11-15T14:51:34;6.03;;;3.90;;
37873;SDS011;23709;48.078;11.684;2022-11-15T14:54:09;7.88;;;3.80;;
37873;SDS011;23709;48.078;11.684;2022-11-15T14:56:41;4.57;;;3.53;;
37873;SDS011;23709;48.078;11.684;2022-11-15T14:59:14;5.40;;;3.33;;
37873;SDS011;23709;48.078;11.684;2022-11-15T15:01:46;4.28;;;3.17;;
37873;SDS011;23709;48.078;11.684;2022-11-15T15:04:18;5.03;;;2.95;;
37873;SDS011;23709;48.078;11.684;2022-11-15T15:06:50;5.13;;;3.65;;
37873;SDS011;23709;48.078;11.684;2022-11-15T15:09:23;5.68;;;3.38;;
37873;SDS011;23709;48.078;11.684;2022-11-15T15:11:55;5.07;;;3.42;;
37873;SDS011;23709;48.078;11.684;2022-11-15T15:14:32;5.30;;;3.00;;
37873;SDS011;23709;48.078;11.684;2022-11-15T15:17:04;5.32;;;3.67;;
37873;SDS011;23709;48.078;11.684;2022-11-15T15:19:36;6.47;;;3.55;;
37873;SDS011;23709;48.078;11.684;2022-11-15T15:22:10;5.07;;;3.78;;
37873;SDS011;23709;48.078;11.684;2022-11-15T15:24:50;10.63;;;6.40;;
37873;SDS011;23709;48.078;11.684;2022-11-15T15:27:22;7.32;;;3.70;;
37873;SDS011;23709;48.078;11.684;2022-11-15T15:29:54;5.43;;;3.65;;
37873;SDS011;23709;48.078;11.684;2022-11-15T15:32:26;7.72;;;3.70;;
37873;SDS011;23709;48.078;11.684;2022-11-15T15:34:58;8.30;;;3.63;;
37873;SDS011;23709;48.078;11.684;2022-11-15T15:37:30;8.25;;;3.95;;
37873;SDS011;23709;48.078;11.684;2022-11-15T15:40:15;9.13;;;4.88;;
37873;SDS011;23709;48.078;11.684;2022-11-15T15:42:49;8.73;;;4.43;;
37873;SDS011;23709;48.078;11.684;2022-11-15T15:45:21;10.52;;;4.88;;
37873;SDS011;23709;48.078;11.684;2022-11-15T15:47:53;7.25;;;4.22;;
37873;SDS011;23709;48.078;11.684;2022-11-15T15:50:29;9.88;;;5.72;;
37873;SDS011;23709;48.078;11.684;2022-11-15T15:53:04;15.38;;;5.80;;
37873;SDS011;23709;48.078;11.684;2022-11-15T15:55:37;18.98;;;9.18;;
37873;SDS011;23709;48.078;11.684;2022-11-15T15:58:09;20.02;;;9.32;;
37873;SDS011;23709;48.078;11.684;2022-11-15T16:00:41;18.15;;;8.50;;
37873;SDS011;23709;48.078;11.684;2022-11-15T16:03:13;16.95;;;8.77;;
37873;SDS011;23709;48.078;11.684;2022-11-15T16:05:45;19.60;;;10.45;;
37873;SDS011;23709;48.078;11.684;2022-11-15T16:08:18;29.48;;;17.15;;
37873;SDS011;23709;48.078;11.684;2022-11-15T16:10:52;28.70;;;12.48;;
37873;SDS011;23709;48.078;11.684;2022-11-15T16:13:24;32.22;;;17.02;;
37873;SDS011;23709;48.078;11.684;2022-11-15T16:15:57;29.90;;;16.40;;
37873;SDS011;23709;48.078;11.684;2022-11-15T16:18:29;31.65;;;16.75;;
37873;SDS011;23709;48.078;11.684;2022-11-15T16:21:01;33.00;;;16.57;;
37873;SDS011;23709;48.078;11.684;2022-11-15T16:23:34;26.20;;;13.73;;
37873;SDS011;23709;48.078;11.684;2022-11-15T16:26:12;25.25;;;13.68;;
37873;SDS011;23709;48.078;11.684;2022-11-15T16:28:51;26.92;;;14.48;;
37873;SDS011;23709;48.078;11.684;2022-11-15T16:31:23;24.80;;;14.02;;
37873;SDS011;23709;48.078;11.684;2022-11-15T16:33:55;28.27;;;13.27;;
37873;SDS011;23709;48.078;11.684;2022-11-15T16:36:29;23.77;;;14.32;;
37873;SDS011;23709;48.078;11.684;2022-11-15T16:39:03;26.38;;;14.38;;
37873;SDS011;23709;48.078;11.684;2022-11-15T16:41:35;29.45;;;14.40;;
37873;SDS011;23709;48.078;11.684;2022-11-15T16:44:07;26.52;;;12.60;;
37873;SDS011;23709;48.078;11.684;2022-11-15T16:46:43;23.60;;;13.80;;
37873;SDS011;23709;48.078;11.684;2022-11-15T16:49:19;23.98;;;12.90;;
37873;SDS011;23709;48.078;11.684;2022-11-15T16:51:52;22.50;;;13.52;;
37873;SDS011;23709;48.078;11.684;2022-11-15T16:54:24;21.65;;;12.57;;
37873;SDS011;23709;48.078;11.684;2022-11-15T16:56:56;26.35;;;13.63;;
37873;SDS011;23709;48.078;11.684;2022-11-15T16:59:28;23.98;;;12.88;;
37873;SDS011;23709;48.078;11.684;2022-11-15T17:02:10;43.38;;;19.52;;
37873;SDS011;23709;48.078;11.684;2022-11-15T17:04:43;38.17;;;18.90;;
37873;SDS011;23709;48.078;11.684;2022-11-15T17:07:17;30.45;;;16.90;;
37873;SDS011;23709;48.078;11.684;2022-11-15T17:09:49;31.70;;;16.00;;
37873;SDS011;23709;48.078;11.684;2022-11-15T17:12:21;28.75;;;15.88;;
37873;SDS011;23709;48.078;11.684;2022-11-15T17:14:53;29.98;;;17.08;;
37873;SDS011;23709;48.078;11.684;2022-11-15T17:17:25;33.05;;;16.85;;
37873;SDS011;23709;48.078;11.684;2022-11-15T17:19:57;26.70;;;16.48;;
37873;SDS011;23709;48.078;11.684;2022-11-15T17:22:29;26.05;;;14.82;;
37873;SDS011;23709;48.078;11.684;2022-11-15T17:25:02;23.73;;;14.93;;
37873;SDS011;23709;48.078;11.684;2022-11-15T17:27:34;27.33;;;13.05;;
37873;SDS011;23709;48.078;11.684;2022-11-15T17:30:07;23.73;;;12.18;;
37873;SDS011;23709;48.078;11.684;2022-11-15T17:32:42;25.35;;;12.93;;
37873;SDS011;23709;48.078;11.684;2022-11-15T17:35:16;30.88;;;16.88;;
37873;SDS011;23709;48.078;11.684;2022-11-15T17:40:20;96.90;;;48.30;;
37873;SDS011;23709;48.078;11.684;2022-11-15T17:42:52;84.55;;;41.75;;
37873;SDS011;23709;48.078;11.684;2022-11-15T17:45:25;78.07;;;38.13;;
37873;SDS011;23709;48.078;11.684;2022-11-15T17:47:57;79.93;;;39.55;;
37873;SDS011;23709;48.078;11.684;2022-11-15T17:50:29;62.72;;;33.00;;
37873;SDS011;23709;48.078;11.684;2022-11-15T17:53:01;57.60;;;28.60;;
37873;SDS011;23709;48.078;11.684;2022-11-15T17:55:34;89.65;;;47.15;;
37873;SDS011;23709;48.078;11.684;2022-11-15T17:58:06;75.55;;;38.40;;
37873;SDS011;23709;48.078;11.684;2022-11-15T18:00:38;72.10;;;37.53;;
37873;SDS011;23709;48.078;11.684;2022-11-15T18:03:11;57.90;;;31.83;;
37873;SDS011;23709;48.078;11.684;2022-11-15T18:05:43;64.38;;;33.28;;
37873;SDS011;23709;48.078;11.684;2022-11-15T18:08:15;55.20;;;30.40;;
37873;SDS011;23709;48.078;11.684;2022-11-15T18:10:47;44.40;;;23.85;;
37873;SDS011;23709;48.078;11.684;2022-11-15T18:13:19;41.22;;;19.17;;
37873;SDS011;23709;48.078;11.684;2022-11-15T18:15:54;33.67;;;18.90;;
37873;SDS011;23709;48.078;11.684;2022-11-15T18:18:27;33.60;;;18.85;;
37873;SDS011;23709;48.078;11.684;2022-11-15T18:23:43;37.42;;;19.70;;
37873;SDS011;23709;48.078;11.684;2022-11-15T18:26:16;31.05;;;17.27;;
37873;SDS011;23709;48.078;11.684;2022-11-15T18:28:56;29.60;;;16.55;;
37873;SDS011;23709;48.078;11.684;2022-11-15T18:31:32;32.75;;;17.67;;
37873;SDS011;23709;48.078;11.684;2022-11-15T18:34:04;30.95;;;16.02;;
37873;SDS011;23709;48.078;11.684;2022-11-15T18:36:36;28.00;;;16.67;;
37873;SDS011;23709;48.078;11.684;2022-11-15T18:39:09;34.85;;;16.50;;
37873;SDS011;23709;48.078;11.684;2022-11-15T18:41:47;27.13;;;15.70;;
37873;SDS011;23709;48.078;11.684;2022-11-15T18:44:19;29.73;;;15.13;;
37873;SDS011;23709;48.078;11.684;2022-11-15T18:46:51;27.85;;;17.08;;
37873;SDS011;23709;48.078;11.684;2022-11-15T18:49:23;32.00;;;16.38;;
37873;SDS011;23709;48.078;11.684;2022-11-15T18:51:55;30.58;;;16.17;;
37873;SDS011;23709;48.078;11.684;2022-11-15T18:54:27;35.33;;;15.80;;
37873;SDS011;23709;48.078;11.684;2022-11-15T18:57:02;27.60;;;15.60;;
37873;SDS011;23709;48.078;11.684;2022-11-15T18:59:34;28.67;;;15.27;;
37873;SDS011;23709;48.078;11.684;2022-11-15T19:02:08;25.60;;;14.70;;
37873;SDS011;23709;48.078;11.684;2022-11-15T19:04:43;27.90;;;13.32;;